Terminal Aerodrome Forecast
Issued by NWS

Current Version | Previous Version | Graphics & Text | Print | Product List | Glossary On
Versions: 1 2 3 4 5 6 7 8 9 10 11 12 13 14 15 16 17 18 19 20 21 22
000
FTUS41 KPBZ 221723
TAFHLG
TAF
KHLG 221723Z 2218/2318 17008G15KT P6SM BKN100
     FM230100 16006KT P6SM VCSH BKN080 WS020/19035KT
     FM230700 17008KT P6SM -SHRA SCT025 OVC035 WS020/21040KT
     FM230900 20008KT P6SM -SHRA BKN025 WS020/21035KT
     FM231300 21010G18KT P6SM VCSH OVC035
     FM231500 23014G27KT P6SM VCSH OVC035=

USA.gov is the U.S. government's official web portal to all federal, state and local government web resources and services.